createdAt,value
2022-09-16T00:01:37.063Z,99963.84
2022-09-16T00:04:06.310Z,99970.81
2022-09-16T00:06:35.771Z,99960.06
2022-09-16T00:09:05.468Z,99960.47
2022-09-16T00:11:35.421Z,99965.22
2022-09-16T00:14:07.756Z,99964.03
2022-09-16T00:16:35.959Z,99974.50
2022-09-16T00:19:05.553Z,99969.69
2022-09-16T00:21:34.855Z,99970.53
2022-09-16T00:24:04.333Z,99977.53
2022-09-16T00:26:34.800Z,99981.97
2022-09-16T00:29:05.032Z,99973.78
2022-09-16T00:31:35.423Z,99984.56
2022-09-16T00:34:03.335Z,99983.19
2022-09-16T00:36:33.199Z,99987.38
2022-09-16T00:39:02.524Z,99979.09
2022-09-16T00:41:33.508Z,99990.31
2022-09-16T00:44:05.806Z,99991.34
2022-09-16T00:46:38.747Z,99993.66
2022-09-16T00:49:13.737Z,99996.97
2022-09-16T00:51:45.390Z,100000.69
2022-09-16T00:54:17.059Z,100001.53
2022-09-16T00:56:49.775Z,100009.69
2022-09-16T00:59:24.530Z,100008.91
2022-09-16T01:01:58.030Z,100014.22
2022-09-16T01:04:31.823Z,100017.94
2022-09-16T01:07:02.929Z,100014.72
2022-09-16T01:09:34.122Z,100026.84
2022-09-16T01:12:05.378Z,100035.28
2022-09-16T01:14:54.712Z,100021.41
2022-09-16T01:17:38.725Z,100030.25
2022-09-16T01:20:28.805Z,100028.69
2022-09-16T01:23:12.828Z,100031.22
2022-09-16T01:25:53.331Z,100037.16
2022-09-16T01:28:40.222Z,100035.41
2022-09-16T01:31:16.779Z,100033.53
2022-09-16T01:33:52.780Z,100035.63
2022-09-16T01:36:39.263Z,100033.59
2022-09-16T01:39:19.511Z,100033.75
2022-09-16T01:41:58.547Z,100032.44
2022-09-16T01:44:33.419Z,100044.38
2022-09-16T01:47:08.138Z,100040.78
2022-09-16T01:49:44.639Z,100025.22
2022-09-16T01:52:22.827Z,100034.94
2022-09-16T01:54:57.811Z,100035.72
2022-09-16T01:57:33.208Z,100033.06
2022-09-16T02:00:07.626Z,100034.91
2022-09-16T02:02:42.214Z,100033.28
2022-09-16T02:05:15.884Z,100030.00
2022-09-16T02:07:50.013Z,100014.34
2022-09-16T02:10:24.621Z,100011.66
2022-09-16T02:13:00.755Z,100020.50
2022-09-16T02:15:34.234Z,100015.06
2022-09-16T02:18:11.754Z,100007.31
2022-09-16T02:20:46.485Z,100008.31
2022-09-16T02:23:21.332Z,100007.53
2022-09-16T02:25:53.660Z,99998.66
2022-09-16T02:28:26.823Z,100001.16
2022-09-16T02:30:59.388Z,100002.06
2022-09-16T02:33:34.441Z,99993.41
2022-09-16T02:36:06.313Z,99992.69
2022-09-16T02:38:41.812Z,99993.38
2022-09-16T02:41:14.857Z,99990.88
2022-09-16T02:43:46.703Z,99996.53
2022-09-16T02:46:25.471Z,99996.91
2022-09-16T02:49:00.549Z,99994.50
2022-09-16T02:51:35.234Z,100000.53
2022-09-16T02:54:09.450Z,100001.34
2022-09-16T02:56:41.543Z,99996.28
2022-09-16T02:59:12.030Z,100004.94
2022-09-16T03:01:42.409Z,100004.84
2022-09-16T03:04:15.711Z,99999.59
2022-09-16T03:06:46.994Z,99998.84
2022-09-16T03:09:18.358Z,100005.72
2022-09-16T03:12:19.095Z,100007.38
2022-09-16T03:15:09.196Z,99997.00
2022-09-16T03:17:52.052Z,99997.81
2022-09-16T03:20:29.809Z,100000.41
2022-09-16T03:23:05.750Z,99996.81
2022-09-16T03:25:44.781Z,99990.78
2022-09-16T03:28:19.183Z,99987.38
2022-09-16T03:30:55.967Z,99998.88
2022-09-16T03:33:29.014Z,99995.34
2022-09-16T03:36:03.767Z,99979.94
2022-09-16T03:38:36.784Z,99982.56
2022-09-16T03:41:08.649Z,99980.94
2022-09-16T03:43:39.527Z,99990.56
2022-09-16T03:46:11.811Z,99979.25
2022-09-16T03:48:42.849Z,99982.81
2022-09-16T03:51:15.752Z,99993.09
2022-09-16T03:53:46.641Z,99995.91
2022-09-16T03:56:17.614Z,99990.41
2022-09-16T03:58:48.837Z,100001.56
2022-09-16T04:01:20.596Z,99994.72
2022-09-16T04:03:52.347Z,99989.47
2022-09-16T04:06:24.738Z,99986.69
2022-09-16T04:08:58.614Z,99987.72
2022-09-16T04:11:32.069Z,99989.34
2022-09-16T04:14:02.968Z,99986.66
2022-09-16T04:16:34.628Z,99984.28
2022-09-16T04:19:07.087Z,99978.19
2022-09-16T04:21:39.347Z,99973.94
2022-09-16T04:24:13.120Z,99966.44
2022-09-16T04:26:44.977Z,99973.38
2022-09-16T04:29:15.960Z,99987.88
2022-09-16T04:31:46.884Z,99981.03
2022-09-16T04:34:17.889Z,99977.50
2022-09-16T04:36:50.175Z,99976.91
2022-09-16T04:39:21.281Z,99982.94
2022-09-16T04:41:52.158Z,99978.50
2022-09-16T04:44:23.027Z,99981.88
2022-09-16T04:46:54.118Z,99984.47
2022-09-16T04:49:25.368Z,99981.75
2022-09-16T04:51:57.574Z,99991.34
2022-09-16T04:54:28.471Z,99982.53
2022-09-16T04:56:59.313Z,99976.47
2022-09-16T04:59:30.229Z,99973.88
2022-09-16T05:02:01.363Z,100000.97
2022-09-16T05:04:32.399Z,99980.09
2022-09-16T05:07:04.759Z,99990.41
2022-09-16T05:09:37.545Z,99981.44
2022-09-16T05:12:08.975Z,99973.63
2022-09-16T05:14:39.891Z,99977.09
2022-09-16T05:17:11.205Z,99975.47
2022-09-16T05:19:42.123Z,99974.72
2022-09-16T05:22:14.412Z,99976.25
2022-09-16T05:24:46.114Z,99976.09
2022-09-16T05:27:17.636Z,99972.09
2022-09-16T05:29:48.490Z,99981.97
2022-09-16T05:32:19.443Z,99976.97
2022-09-16T05:34:50.763Z,99970.00
2022-09-16T05:37:23.032Z,99966.19
2022-09-16T05:39:53.991Z,99962.81
2022-09-16T05:42:25.089Z,99965.25
2022-09-16T05:44:56.038Z,99980.00
2022-09-16T05:47:27.373Z,99958.16
2022-09-16T05:49:58.256Z,99960.41
2022-09-16T05:52:30.979Z,99960.78
2022-09-16T05:55:01.924Z,99958.53
2022-09-16T05:57:32.846Z,99947.31
2022-09-16T06:00:04.958Z,99949.78
2022-09-16T06:02:38.839Z,99958.19
2022-09-16T06:05:09.528Z,99957.03
2022-09-16T06:07:39.537Z,99941.41
2022-09-16T06:10:09.022Z,99937.78
2022-09-16T06:12:37.827Z,99936.13
2022-09-16T06:15:08.309Z,99944.31
2022-09-16T06:17:38.003Z,99932.81
2022-09-16T06:20:14.003Z,99936.31
2022-09-16T06:22:46.214Z,99918.53
2022-09-16T06:25:17.206Z,99924.59
2022-09-16T06:27:48.079Z,99919.75
2022-09-16T06:30:19.212Z,99912.13
2022-09-16T06:32:47.287Z,99914.19
2022-09-16T06:35:18.353Z,99911.38
2022-09-16T06:37:50.658Z,99906.97
2022-09-16T06:40:21.711Z,99904.13
2022-09-16T06:42:58.234Z,99912.78
2022-09-16T06:45:30.964Z,99907.66
2022-09-16T06:48:01.729Z,99910.47
2022-09-16T06:50:32.560Z,99901.28
2022-09-16T06:53:03.341Z,99904.69
2022-09-16T06:55:31.352Z,99897.09
2022-09-16T06:58:01.762Z,99893.38
2022-09-16T07:00:31.502Z,99893.69
2022-09-16T07:03:03.549Z,99887.41
2022-09-16T07:05:33.423Z,99887.38
2022-09-16T07:08:04.623Z,99887.94
2022-09-16T07:10:33.219Z,99880.81
2022-09-16T07:13:02.576Z,99882.09
2022-09-16T07:15:32.280Z,99882.38
2022-09-16T07:18:01.948Z,99869.91
2022-09-16T07:20:31.602Z,99876.75
2022-09-16T07:23:01.882Z,99866.00
2022-09-16T07:25:35.856Z,99871.44
2022-09-16T07:28:06.831Z,99867.56
2022-09-16T07:30:36.611Z,99886.09
2022-09-16T07:33:06.408Z,99875.16
2022-09-16T07:35:35.871Z,99869.00
2022-09-16T07:38:05.571Z,99872.47
2022-09-16T07:40:36.806Z,99904.03
2022-09-16T07:43:05.604Z,99867.50
2022-09-16T07:45:35.141Z,99898.06
2022-09-16T07:48:04.957Z,99887.00
2022-09-16T07:50:34.711Z,99874.94
2022-09-16T07:53:05.263Z,99880.03
2022-09-16T07:55:37.362Z,99889.75
2022-09-16T07:58:07.573Z,99883.25
2022-09-16T08:00:37.154Z,99893.72
2022-09-16T08:03:07.006Z,99889.78
2022-09-16T08:05:37.097Z,99896.44
2022-09-16T08:08:06.690Z,99893.88
2022-09-16T08:10:37.973Z,99867.78
2022-09-16T08:13:07.420Z,99915.50
2022-09-16T08:15:36.909Z,99869.31
2022-09-16T08:18:06.828Z,99910.63
2022-09-16T08:20:37.983Z,99908.00
2022-09-16T08:23:06.594Z,99889.19
2022-09-16T08:25:37.647Z,99888.19
2022-09-16T08:28:05.898Z,99899.19
2022-09-16T08:30:36.301Z,99886.41
2022-09-16T08:33:06.229Z,99897.63
2022-09-16T08:35:36.326Z,99898.19
2022-09-16T08:38:05.742Z,99888.53
2022-09-16T08:40:37.650Z,99905.41
2022-09-16T08:43:10.804Z,99902.72
2022-09-16T08:45:46.573Z,99910.28
2022-09-16T08:48:29.859Z,99890.22
2022-09-16T08:51:01.873Z,99904.75
2022-09-16T08:53:36.982Z,99912.34
2022-09-16T08:56:13.825Z,99919.66
2022-09-16T08:58:46.226Z,99897.31
2022-09-16T09:01:20.221Z,99895.56
2022-09-16T09:03:51.466Z,99897.19
2022-09-16T09:06:33.132Z,99898.16
2022-09-16T09:09:11.427Z,99904.13
2022-09-16T09:11:46.575Z,99890.09
2022-09-16T09:14:32.980Z,99900.22
2022-09-16T09:17:08.786Z,99894.69
2022-09-16T09:19:50.483Z,99928.13
2022-09-16T09:22:28.561Z,99909.13
2022-09-16T09:25:14.936Z,99905.72
2022-09-16T09:27:52.450Z,99894.22
2022-09-16T09:30:24.674Z,99904.44
2022-09-16T09:33:28.007Z,99933.75
2022-09-16T09:36:33.687Z,99910.38
2022-09-16T09:39:17.790Z,99899.50
2022-09-16T09:41:52.165Z,99887.41
2022-09-16T09:44:43.419Z,99888.19
2022-09-16T09:47:17.943Z,99884.56
2022-09-16T09:49:51.566Z,99892.66
2022-09-16T09:52:26.114Z,99901.28
2022-09-16T09:54:57.071Z,99899.66
2022-09-16T09:57:30.414Z,99898.59
2022-09-16T10:00:09.017Z,99891.06
2022-09-16T10:02:48.824Z,99890.88
2022-09-16T10:05:23.763Z,99894.25
2022-09-16T10:07:58.950Z,99893.44
2022-09-16T10:10:33.834Z,99904.88
2022-09-16T10:13:08.773Z,99894.59
2022-09-16T10:15:41.589Z,99902.56
2022-09-16T10:18:15.171Z,99946.66
2022-09-16T10:20:57.305Z,99895.06
2022-09-16T10:23:30.259Z,99887.19
2022-09-16T10:26:23.569Z,99883.88
2022-09-16T10:28:57.972Z,99907.88
2022-09-16T10:31:35.817Z,99890.25
2022-09-16T10:34:15.983Z,99918.72
2022-09-16T10:36:47.082Z,99900.44
2022-09-16T10:39:24.804Z,99887.63
2022-09-16T10:41:55.712Z,99883.50
2022-09-16T10:44:28.787Z,99888.53
2022-09-16T10:47:02.799Z,99897.69
2022-09-16T10:49:40.117Z,99884.56
2022-09-16T10:52:17.495Z,99880.00
2022-09-16T10:54:48.743Z,99896.28
2022-09-16T10:57:23.222Z,99883.06
2022-09-16T11:00:02.155Z,99890.81
2022-09-16T11:02:48.068Z,99884.31
2022-09-16T11:05:24.004Z,99880.75
2022-09-16T11:08:03.885Z,99878.00
2022-09-16T11:10:38.987Z,99868.09
2022-09-16T11:13:19.491Z,99863.69
2022-09-16T11:16:03.901Z,99876.88
2022-09-16T11:18:49.284Z,99876.84
2022-09-16T11:21:34.711Z,99877.28
2022-09-16T11:24:16.052Z,99879.03
2022-09-16T11:26:54.489Z,99899.34
2022-09-16T11:29:51.908Z,99876.31
2022-09-16T11:32:31.189Z,99884.81
2022-09-16T11:35:30.861Z,99881.19
2022-09-16T11:38:07.224Z,99894.69
2022-09-16T11:40:47.758Z,99896.72
2022-09-16T11:43:38.835Z,99893.41
2022-09-16T11:46:14.183Z,99885.44
2022-09-16T11:48:55.439Z,99879.03
2022-09-16T11:51:37.188Z,99874.53
2022-09-16T11:57:02.436Z,99877.03
2022-09-16T11:59:37.236Z,99861.09
2022-09-16T12:02:15.966Z,99867.81
2022-09-16T12:04:50.212Z,99866.50
2022-09-16T12:07:26.436Z,99874.16
2022-09-16T12:10:00.953Z,99865.25
2022-09-16T12:12:37.249Z,99866.75
2022-09-16T12:15:16.623Z,99861.63
2022-09-16T12:17:53.686Z,99865.91
2022-09-16T12:20:27.810Z,99865.53
2022-09-16T12:23:05.474Z,99874.81
2022-09-16T12:25:44.270Z,99874.72
2022-09-16T12:28:20.572Z,99864.44
2022-09-16T12:31:00.084Z,99855.63
2022-09-16T12:33:35.224Z,99863.56
2022-09-16T12:36:08.287Z,99854.09
2022-09-16T12:38:41.089Z,99854.72
2022-09-16T12:41:25.166Z,99826.13
2022-09-16T12:44:17.469Z,99835.09
2022-09-16T12:47:10.394Z,99830.94
2022-09-16T12:50:14.147Z,99841.66
2022-09-16T12:53:33.761Z,99829.34
2022-09-16T12:56:11.841Z,99833.34
2022-09-16T13:18:42.614Z,99808.63
2022-09-16T13:21:21.440Z,99815.03
2022-09-16T13:23:58.303Z,99814.91
2022-09-16T13:26:40.042Z,99805.06
2022-09-16T13:29:33.129Z,99813.34
2022-09-16T13:32:01.195Z,99806.59
2022-09-16T13:34:30.956Z,99828.91
2022-09-16T13:36:58.856Z,99799.38
2022-09-16T13:39:31.765Z,99806.16
2022-09-16T13:42:11.294Z,99806.06
2022-09-16T13:44:43.254Z,99811.38
2022-09-16T13:47:19.835Z,99792.44
2022-09-16T13:49:51.948Z,99786.25
2022-09-16T13:52:22.157Z,99812.78
2022-09-16T13:55:16.069Z,99801.56
2022-09-16T13:57:49.247Z,99795.31
2022-09-16T14:00:20.975Z,99799.91
2022-09-16T14:03:21.049Z,99794.13
2022-09-16T14:06:11.641Z,99797.75
2022-09-16T14:08:46.078Z,99798.50
2022-09-16T14:11:18.574Z,99809.22
2022-09-16T14:13:48.058Z,99817.41
2022-09-16T14:16:19.486Z,99802.91
2022-09-16T14:18:57.044Z,99804.63
2022-09-16T14:21:26.918Z,99794.13
2022-09-16T14:26:27.344Z,99783.16
2022-09-16T14:29:03.274Z,99795.66
2022-09-16T14:31:32.688Z,99788.31
2022-09-16T14:34:04.462Z,99780.59
2022-09-16T14:36:35.569Z,99786.44
2022-09-16T14:39:10.609Z,99769.81
2022-09-16T14:41:40.866Z,99776.13
2022-09-16T14:44:11.853Z,99781.47
2022-09-16T14:46:44.013Z,99792.94
2022-09-16T14:49:13.232Z,99800.75
2022-09-16T14:51:44.973Z,99783.56
2022-09-16T14:54:17.983Z,99793.81
2022-09-16T14:56:56.917Z,99794.78
2022-09-16T14:59:27.747Z,99793.84
2022-09-16T15:01:59.150Z,99802.13
2022-09-16T15:04:29.124Z,99797.94
2022-09-16T15:07:03.966Z,99806.94
2022-09-16T15:09:37.999Z,99815.34
2022-09-16T15:12:06.454Z,99803.59
2022-09-16T15:14:38.582Z,99809.75
2022-09-16T15:17:06.722Z,99802.97
2022-09-16T15:19:37.293Z,99800.69
2022-09-16T15:22:09.060Z,99808.72
2022-09-16T15:24:41.430Z,99799.72
2022-09-16T15:27:10.668Z,99785.41
2022-09-16T15:29:49.316Z,99780.41
2022-09-16T15:32:19.420Z,99785.06
2022-09-16T15:34:49.610Z,99792.34
2022-09-16T15:37:35.612Z,99784.50
2022-09-16T15:40:22.800Z,99775.22
2022-09-16T15:43:02.718Z,99781.97
2022-09-16T15:45:30.799Z,99784.09
2022-09-16T15:48:01.950Z,99785.13
2022-09-16T15:50:31.378Z,99774.78
2022-09-16T15:53:02.753Z,99780.59
2022-09-16T15:55:36.881Z,99785.41
2022-09-16T15:58:09.671Z,99789.41
2022-09-16T16:00:52.218Z,99776.94
2022-09-16T16:03:21.442Z,99770.53
2022-09-16T16:05:52.183Z,99763.69
2022-09-16T16:08:40.082Z,99765.38
2022-09-16T16:11:09.220Z,99758.69
2022-09-16T16:13:37.061Z,99760.22
2022-09-16T16:16:05.306Z,99753.16
2022-09-16T16:18:34.076Z,99758.38
2022-09-16T16:21:06.000Z,99763.84
2022-09-16T16:23:34.406Z,99755.34
2022-09-16T16:26:04.275Z,99754.94
2022-09-16T16:28:32.131Z,99745.50
2022-09-16T16:31:12.388Z,99736.69
2022-09-16T16:33:44.650Z,99749.19
2022-09-16T16:36:14.077Z,99747.03
2022-09-16T16:38:42.024Z,99758.47
2022-09-16T16:41:12.266Z,99777.81
2022-09-16T16:43:40.455Z,99754.88
2022-09-16T16:46:08.839Z,99762.22
2022-09-16T16:48:37.075Z,99758.00
2022-09-16T16:51:07.693Z,99753.06
2022-09-16T16:53:36.172Z,99754.03
2022-09-16T16:56:05.649Z,99752.44
2022-09-16T16:58:36.001Z,99753.63
2022-09-16T17:01:10.639Z,99758.97
2022-09-16T17:03:38.592Z,99765.09
2022-09-16T17:06:07.364Z,99758.47
2022-09-16T17:08:35.660Z,99765.97
2022-09-16T17:11:08.303Z,99760.53
2022-09-16T17:13:37.900Z,99751.53
2022-09-16T17:16:06.453Z,99751.53
2022-09-16T17:18:35.774Z,99752.56
2022-09-16T17:21:04.950Z,99755.66
2022-09-16T17:23:33.345Z,99759.50
2022-09-16T17:26:01.824Z,99748.16
2022-09-16T17:28:29.789Z,99736.56
2022-09-16T17:30:59.361Z,99741.78
2022-09-16T17:33:27.573Z,99741.00
2022-09-16T17:36:02.565Z,99734.03
2022-09-16T17:38:30.719Z,99734.03
2022-09-16T17:41:03.741Z,99734.03
2022-09-16T17:43:32.963Z,99739.50
2022-09-16T17:46:04.343Z,99743.72
2022-09-16T17:48:32.483Z,99744.44
2022-09-16T17:51:00.700Z,99738.88
2022-09-16T17:53:28.595Z,99746.97
2022-09-16T17:56:03.637Z,99751.31
2022-09-16T17:58:32.039Z,99748.94
2022-09-16T18:01:09.971Z,99756.03
2022-09-16T18:03:38.495Z,99763.31
2022-09-16T18:06:09.955Z,99769.38
2022-09-16T18:08:38.309Z,99781.78
2022-09-16T18:11:07.278Z,99782.56
2022-09-16T18:13:36.009Z,99791.41
2022-09-16T18:16:07.821Z,99795.56
2022-09-16T18:18:36.677Z,99799.66
2022-09-16T18:21:06.142Z,99799.09
2022-09-16T18:23:34.219Z,99798.53
2022-09-16T18:26:06.151Z,99795.78
2022-09-16T18:28:58.280Z,99799.59
2022-09-16T18:31:26.223Z,99800.84
2022-09-16T18:33:54.928Z,99805.22
2022-09-16T18:36:25.340Z,99804.59
2022-09-16T18:38:53.976Z,99794.44
2022-09-16T18:41:23.094Z,99804.41
2022-09-16T18:43:54.484Z,99804.31
2022-09-16T18:46:26.520Z,99810.66
2022-09-16T18:48:56.589Z,99816.94
2022-09-16T18:51:26.902Z,99831.03
2022-09-16T18:54:00.465Z,99834.94
2022-09-16T18:56:30.059Z,99845.91
2022-09-16T18:59:20.318Z,99842.31
2022-09-16T19:01:49.671Z,99856.75
2022-09-16T19:04:21.398Z,99859.34
2022-09-16T19:06:51.612Z,99867.44
2022-09-16T19:09:21.001Z,99881.88
2022-09-16T19:11:49.444Z,99875.25
2022-09-16T19:14:17.834Z,99885.13
2022-09-16T19:16:47.313Z,99886.38
2022-09-16T19:19:15.885Z,99882.06
2022-09-16T19:21:45.513Z,99888.59
2022-09-16T19:24:16.484Z,99888.97
2022-09-16T19:26:45.663Z,99888.97
2022-09-16T19:29:14.978Z,99892.44
2022-09-16T19:31:44.424Z,99895.94
2022-09-16T19:34:13.052Z,99904.84
2022-09-16T19:36:41.314Z,99909.31
2022-09-16T19:39:11.972Z,99912.75
2022-09-16T19:41:41.147Z,99915.56
2022-09-16T19:44:12.134Z,99919.47
2022-09-16T19:46:42.568Z,99911.09
2022-09-16T19:49:15.853Z,99914.63
2022-09-16T19:51:44.123Z,99918.34
2022-09-16T19:54:13.655Z,99921.88
2022-09-16T19:56:44.221Z,99924.59
2022-09-16T19:59:15.062Z,99931.47
2022-09-16T20:01:43.365Z,99922.06
2022-09-16T20:04:11.291Z,99931.75
2022-09-16T20:06:40.564Z,99922.28
2022-09-16T20:09:11.451Z,99934.47
2022-09-16T20:11:42.153Z,99933.28
2022-09-16T20:14:13.511Z,99936.72
2022-09-16T20:16:41.626Z,99936.72
2022-09-16T20:19:11.251Z,99937.59
2022-09-16T20:21:39.570Z,99939.59
2022-09-16T20:24:09.188Z,99944.00
2022-09-16T20:26:37.303Z,99940.75
2022-09-16T20:29:06.478Z,99939.66
2022-09-16T20:31:36.345Z,99940.59
2022-09-16T20:34:05.103Z,99946.84
2022-09-16T20:36:35.908Z,99946.91
2022-09-16T20:39:04.720Z,99940.75
2022-09-16T20:41:34.343Z,99941.81
2022-09-16T20:44:02.544Z,99939.25
2022-09-16T20:46:32.900Z,99934.88
2022-09-16T20:49:01.923Z,99944.44
2022-09-16T20:51:31.289Z,99942.69
2022-09-16T20:54:04.912Z,99943.81
2022-09-16T20:56:38.258Z,99945.50
2022-09-16T20:59:08.194Z,99951.53
2022-09-16T21:01:38.712Z,99950.69
2022-09-16T21:04:08.132Z,99948.91
2022-09-16T21:06:36.671Z,99952.09
2022-09-16T21:09:07.064Z,99954.00
2022-09-16T21:11:35.386Z,99955.59
2022-09-16T21:14:06.336Z,99953.63
2022-09-16T21:16:36.108Z,99960.63
2022-09-16T21:19:09.442Z,99960.56
2022-09-16T21:21:38.629Z,99957.00
2022-09-16T21:24:07.175Z,99957.78
2022-09-16T21:26:36.369Z,99955.94
2022-09-16T21:29:06.608Z,99956.53
2022-09-16T21:31:34.839Z,99958.34
2022-09-16T21:34:03.394Z,99957.47
2022-09-16T21:36:33.645Z,99956.31
2022-09-16T21:39:01.549Z,99954.75
2022-09-16T21:41:29.622Z,99949.50
2022-09-16T21:43:58.242Z,99952.16
2022-09-16T21:46:28.114Z,99952.13
2022-09-16T21:48:58.211Z,99952.13
2022-09-16T21:51:26.334Z,99953.78
2022-09-16T21:53:56.250Z,99952.75
2022-09-16T21:56:24.254Z,99951.22
2022-09-16T21:58:55.192Z,99955.31
2022-09-16T22:01:25.308Z,99951.03
2022-09-16T22:03:55.025Z,99954.41
2022-09-16T22:06:25.458Z,99956.22
2022-09-16T22:08:55.648Z,99957.69
2022-09-16T22:11:25.502Z,99955.78
2022-09-16T22:13:56.059Z,99955.84
2022-09-16T22:16:28.040Z,99952.44
2022-09-16T22:18:59.964Z,99942.06
2022-09-16T22:21:29.366Z,99959.38
2022-09-16T22:23:59.419Z,99946.47
2022-09-16T22:26:28.510Z,99949.53
2022-09-16T22:28:56.334Z,99941.16
2022-09-16T22:31:25.673Z,99939.53
2022-09-16T22:33:55.058Z,99939.78
2022-09-16T22:36:24.884Z,99936.13
2022-09-16T22:38:54.294Z,99935.97
2022-09-16T22:41:24.188Z,99937.31
2022-09-16T22:43:53.288Z,99948.47
2022-09-16T22:46:22.746Z,99946.66
2022-09-16T22:48:50.987Z,99936.84
2022-09-16T22:51:19.749Z,99941.41
2022-09-16T22:53:48.278Z,99945.44
2022-09-16T22:56:17.917Z,99937.47
2022-09-16T22:58:48.352Z,99936.31
2022-09-16T23:01:18.049Z,99936.31
2022-09-16T23:03:47.022Z,99929.94
2022-09-16T23:06:16.449Z,99933.72
2022-09-16T23:08:46.411Z,99934.63
2022-09-16T23:11:17.017Z,99936.28
2022-09-16T23:13:52.848Z,99937.66
2022-09-16T23:16:23.005Z,99938.25
2022-09-16T23:18:51.302Z,99938.25
2022-09-16T23:21:21.337Z,99949.00
2022-09-16T23:23:50.773Z,99941.19
2022-09-16T23:26:20.386Z,99954.31
2022-09-16T23:28:53.524Z,99954.59
2022-09-16T23:31:23.490Z,99961.97
2022-09-16T23:33:56.864Z,99963.63
2022-09-16T23:36:26.231Z,99955.81
2022-09-16T23:38:56.630Z,99964.72
2022-09-16T23:41:26.606Z,99964.22
2022-09-16T23:43:56.845Z,99956.16
2022-09-16T23:46:28.710Z,99961.81
2022-09-16T23:48:57.111Z,99966.91
2022-09-16T23:51:28.444Z,99967.97
2022-09-16T23:53:57.670Z,99968.72
2022-09-16T23:56:26.117Z,99981.50
2022-09-16T23:58:58.260Z,99979.78
